Time,TemperatureF,DewpointF,PressureIn,WindDirection,WindDirectionDegrees,WindSpeedMPH,WindSpeedGustMPH,Humidity,HourlyPrecipIn,Conditions,Clouds,dailyrainin,SolarRadiationWatts/m^2,SoftwareType,DateUTC
2013-06-16 00:01:00,60.0,28.0,-100.00,NNW,348,4.0,6.0,30,0.00,,,0.00,0.000000,,2013-06-16 06:01:00,
2013-06-16 00:11:00,60.0,28.0,-100.00,NNW,348,4.0,6.0,30,0.00,,,0.00,0.000000,,2013-06-16 06:11:00,
2013-06-16 00:33:00,59.0,30.0,-100.00,SSE,164,3.0,5.0,33,0.00,,,0.00,0.000000,,2013-06-16 06:33:00,
2013-06-16 00:43:00,59.0,30.0,-100.00,SSE,164,3.0,5.0,33,0.00,,,0.00,0.000000,,2013-06-16 06:43:00,
2013-06-16 00:52:00,59.0,30.0,-100.00,SSE,164,3.0,5.0,33,0.00,,,0.00,0.000000,,2013-06-16 06:52:00,
2013-06-16 01:11:00,59.0,30.0,-100.00,SSE,164,3.0,5.0,33,0.00,,,0.00,0.000000,,2013-06-16 07:11:00,
2013-06-16 01:33:00,57.0,30.0,-100.00,SSW,198,1.0,5.0,36,-99.99,,,0.00,0.000000,,2013-06-16 07:33:00,
2013-06-16 01:43:00,57.0,30.0,-100.00,SSW,198,1.0,5.0,36,-99.99,,,0.00,0.000000,,2013-06-16 07:43:00,
2013-06-16 01:53:00,57.0,30.0,-100.00,SSW,198,1.0,5.0,36,-99.99,,,0.00,0.000000,,2013-06-16 07:53:00,
2013-06-16 02:02:00,57.0,30.0,-100.00,SSW,198,1.0,5.0,36,-99.99,,,0.00,0.000000,,2013-06-16 08:02:00,
2013-06-16 02:11:00,57.0,30.0,-100.00,SSW,198,1.0,5.0,36,-99.99,,,0.00,0.000000,,2013-06-16 08:11:00,
2013-06-16 02:34:00,55.0,30.0,-100.00,SSE,160,2.0,5.0,38,-99.99,,,0.00,0.000000,,2013-06-16 08:34:00,
2013-06-16 02:43:00,55.0,30.0,-100.00,SSE,160,2.0,5.0,38,-99.99,,,0.00,0.000000,,2013-06-16 08:43:00,
2013-06-16 02:54:00,55.0,30.0,-100.00,SSE,160,2.0,5.0,38,-99.99,,,0.00,0.000000,,2013-06-16 08:54:00,
2013-06-16 03:01:00,55.0,30.0,-100.00,SSE,160,2.0,5.0,38,-99.99,,,0.00,0.000000,,2013-06-16 09:01:00,
2013-06-16 03:11:00,55.0,30.0,-100.00,SSE,160,2.0,5.0,38,-99.99,,,0.00,0.000000,,2013-06-16 09:11:00,
2013-06-16 03:33:00,53.0,29.0,-100.00,SW,228,1.0,4.0,40,-99.99,,,0.00,0.000000,,2013-06-16 09:33:00,
2013-06-16 03:43:00,53.0,29.0,-100.00,SW,228,1.0,4.0,40,-99.99,,,0.00,0.000000,,2013-06-16 09:43:00,
2013-06-16 03:52:00,53.0,29.0,-100.00,SW,228,1.0,4.0,40,-99.99,,,0.00,0.000000,,2013-06-16 09:52:00,
2013-06-16 04:01:00,53.0,29.0,-100.00,SW,228,1.0,4.0,40,-99.99,,,0.00,0.000000,,2013-06-16 10:01:00,
2013-06-16 04:33:00,51.0,30.0,-100.00,SW,220,3.0,5.0,44,-99.99,,,0.00,0.000000,,2013-06-16 10:33:00,
2013-06-16 04:43:00,51.0,30.0,-100.00,SW,220,3.0,5.0,44,-99.99,,,0.00,0.000000,,2013-06-16 10:43:00,
2013-06-16 04:54:00,51.0,30.0,-100.00,SW,220,3.0,5.0,44,-99.99,,,0.00,0.000000,,2013-06-16 10:54:00,
2013-06-16 05:11:00,51.0,30.0,-100.00,SW,220,3.0,5.0,44,-99.99,,,0.00,0.000000,,2013-06-16 11:11:00,
2013-06-16 05:34:00,50.0,29.0,-100.00,SW,224,2.0,5.0,44,-99.99,,,0.00,0.000000,,2013-06-16 11:34:00,
2013-06-16 05:43:00,50.0,29.0,-100.00,SW,224,2.0,5.0,44,-99.99,,,0.00,0.000000,,2013-06-16 11:43:00,
2013-06-16 05:53:00,50.0,29.0,-100.00,SW,224,2.0,5.0,44,-99.99,,,0.00,0.000000,,2013-06-16 11:53:00,
2013-06-16 06:02:00,50.0,29.0,-100.00,SW,224,2.0,5.0,44,-99.99,,,0.00,0.000000,,2013-06-16 12:02:00,
2013-06-16 06:33:00,49.0,30.0,-100.00,WSW,255,1.0,4.0,47,-99.99,,,-99.99,12.000000,,2013-06-16 12:33:00,
2013-06-16 06:43:00,49.0,30.0,-100.00,WSW,255,1.0,4.0,47,-99.99,,,-99.99,12.000000,,2013-06-16 12:43:00,
2013-06-16 06:53:00,49.0,30.0,-100.00,WSW,255,1.0,4.0,47,-99.99,,,-99.99,12.000000,,2013-06-16 12:53:00,
2013-06-16 07:01:00,49.0,30.0,-100.00,WSW,255,1.0,4.0,47,-99.99,,,-99.99,12.000000,,2013-06-16 13:01:00,
2013-06-16 07:11:00,49.0,30.0,-100.00,WSW,255,1.0,4.0,47,-99.99,,,-99.99,12.000000,,2013-06-16 13:11:00,
2013-06-16 08:34:00,58.0,32.0,-100.00,South,181,5.0,9.0,37,0.00,,,0.00,330.000000,,2013-06-16 14:34:00,
2013-06-16 08:44:00,58.0,32.0,-100.00,South,181,5.0,9.0,37,0.00,,,0.00,330.000000,,2013-06-16 14:44:00,
2013-06-16 08:52:00,58.0,32.0,-100.00,South,181,5.0,9.0,37,0.00,,,0.00,330.000000,,2013-06-16 14:52:00,
2013-06-16 09:02:00,58.0,32.0,-100.00,South,181,5.0,9.0,37,0.00,,,0.00,330.000000,,2013-06-16 15:02:00,
2013-06-16 09:12:00,58.0,32.0,-100.00,South,181,5.0,9.0,37,0.00,,,0.00,330.000000,,2013-06-16 15:12:00,
2013-06-16 09:34:00,62.0,34.0,-100.00,SSW,207,3.0,9.0,35,0.00,,,0.00,400.000000,,2013-06-16 15:34:00,
2013-06-16 09:43:00,62.0,34.0,-100.00,SSW,207,3.0,9.0,35,0.00,,,0.00,400.000000,,2013-06-16 15:43:00,
2013-06-16 09:53:00,62.0,34.0,-100.00,SSW,207,3.0,9.0,35,0.00,,,0.00,400.000000,,2013-06-16 15:53:00,
2013-06-16 10:02:00,62.0,34.0,-100.00,SSW,207,3.0,9.0,35,0.00,,,0.00,400.000000,,2013-06-16 16:02:00,
2013-06-16 10:12:00,62.0,34.0,-100.00,SSW,207,3.0,9.0,35,0.00,,,0.00,400.000000,,2013-06-16 16:12:00,
2013-06-16 10:33:00,67.0,34.0,-100.00,NW,321,4.0,12.0,29,0.00,,,0.00,709.000000,,2013-06-16 16:33:00,
2013-06-16 10:43:00,67.0,34.0,-100.00,NW,321,4.0,12.0,29,0.00,,,0.00,709.000000,,2013-06-16 16:43:00,
2013-06-16 10:53:00,67.0,34.0,-100.00,NW,321,4.0,12.0,29,0.00,,,0.00,709.000000,,2013-06-16 16:53:00,
2013-06-16 11:02:00,67.0,34.0,-100.00,NW,321,4.0,12.0,29,0.00,,,0.00,709.000000,,2013-06-16 17:02:00,
2013-06-16 11:12:00,67.0,34.0,-100.00,NW,321,4.0,12.0,29,0.00,,,0.00,709.000000,,2013-06-16 17:12:00,
2013-06-16 11:34:00,69.0,35.0,-100.00,South,186,10.0,18.0,29,0.00,,,-99.99,509.000000,,2013-06-16 17:34:00,
2013-06-16 11:43:00,69.0,35.0,-100.00,South,186,10.0,18.0,29,0.00,,,-99.99,509.000000,,2013-06-16 17:43:00,
2013-06-16 11:53:00,69.0,35.0,-100.00,South,186,10.0,18.0,29,0.00,,,-99.99,509.000000,,2013-06-16 17:53:00,
2013-06-16 12:02:00,69.0,35.0,-100.00,South,186,10.0,18.0,29,0.00,,,-99.99,509.000000,,2013-06-16 18:02:00,
2013-06-16 12:34:00,66.0,37.0,-100.00,NW,321,11.0,19.0,34,-99.99,,,0.00,650.000000,,2013-06-16 18:34:00,
2013-06-16 13:11:00,66.0,37.0,-100.00,NW,321,11.0,19.0,34,-99.99,,,0.00,650.000000,,2013-06-16 19:11:00,
2013-06-16 14:33:00,72.0,37.0,-100.00,SE,144,9.0,16.0,28,0.00,,,0.00,949.000000,,2013-06-16 20:33:00,
2013-06-16 15:01:00,72.0,37.0,-100.00,SE,144,9.0,16.0,28,0.00,,,0.00,949.000000,,2013-06-16 21:01:00,
2013-06-16 16:32:00,63.0,39.0,-100.00,NW,324,14.0,27.0,41,-99.99,,,0.00,476.000000,,2013-06-16 22:32:00,
2013-06-16 16:42:00,63.0,39.0,-100.00,NW,324,14.0,27.0,41,-99.99,,,0.00,476.000000,,2013-06-16 22:42:00,
2013-06-16 16:52:00,63.0,39.0,-100.00,NW,324,14.0,27.0,41,-99.99,,,0.00,476.000000,,2013-06-16 22:52:00,
2013-06-16 17:01:00,63.0,39.0,-100.00,NW,324,14.0,27.0,41,-99.99,,,0.00,476.000000,,2013-06-16 23:01:00,
2013-06-16 17:11:00,63.0,39.0,-100.00,NW,324,14.0,27.0,41,-99.99,,,0.00,476.000000,,2013-06-16 23:11:00,
2013-06-16 17:32:00,68.0,45.0,-100.00,North,9,4.0,17.0,43,0.01,,,0.01,622.000000,,2013-06-16 23:32:00,
2013-06-16 17:42:00,68.0,45.0,-100.00,North,9,4.0,17.0,43,0.01,,,0.01,622.000000,,2013-06-16 23:42:00,
2013-06-16 17:52:00,68.0,45.0,-100.00,North,9,4.0,17.0,43,0.01,,,0.01,622.000000,,2013-06-16 23:52:00,
2013-06-16 18:02:00,68.0,45.0,-100.00,North,9,4.0,17.0,43,0.01,,,0.01,622.000000,,2013-06-17 00:02:00,
2013-06-16 19:32:00,63.0,42.0,-100.00,NNW,343,4.0,8.0,46,-99.99,,,0.01,155.000000,,2013-06-17 01:32:00,
2013-06-16 19:43:00,63.0,42.0,-100.00,NNW,343,4.0,8.0,46,-99.99,,,0.01,155.000000,,2013-06-17 01:43:00,
2013-06-16 19:53:00,63.0,42.0,-100.00,NNW,343,4.0,8.0,46,-99.99,,,0.01,155.000000,,2013-06-17 01:53:00,
2013-06-16 20:02:00,63.0,42.0,-100.00,NNW,343,4.0,8.0,46,-99.99,,,0.01,155.000000,,2013-06-17 02:02:00,
2013-06-16 20:12:00,63.0,42.0,-100.00,NNW,343,4.0,8.0,46,-99.99,,,0.01,155.000000,,2013-06-17 02:12:00,
2013-06-16 20:34:00,61.0,40.0,-100.00,North,3,1.0,9.0,46,0.00,,,0.01,42.000000,,2013-06-17 02:34:00,
2013-06-16 20:43:00,61.0,40.0,-100.00,North,3,1.0,9.0,46,0.00,,,0.01,42.000000,,2013-06-17 02:43:00,
2013-06-16 20:53:00,61.0,40.0,-100.00,North,3,1.0,9.0,46,0.00,,,0.01,42.000000,,2013-06-17 02:53:00,
2013-06-16 21:02:00,61.0,40.0,-100.00,North,3,1.0,9.0,46,0.00,,,0.01,42.000000,,2013-06-17 03:02:00,
2013-06-16 21:12:00,61.0,40.0,-100.00,North,3,1.0,9.0,46,0.00,,,0.01,42.000000,,2013-06-17 03:12:00,
2013-06-16 21:33:00,58.0,38.0,-100.00,NW,313,4.0,7.0,48,0.00,,,0.01,4.000000,,2013-06-17 03:33:00,
2013-06-16 21:44:00,58.0,38.0,-100.00,NW,313,4.0,7.0,48,0.00,,,0.01,4.000000,,2013-06-17 03:44:00,
2013-06-16 21:54:00,58.0,38.0,-100.00,NW,313,4.0,7.0,48,0.00,,,0.01,4.000000,,2013-06-17 03:54:00,
2013-06-16 22:02:00,58.0,38.0,-100.00,NW,313,4.0,7.0,48,0.00,,,0.01,4.000000,,2013-06-17 04:02:00,
2013-06-16 22:12:00,58.0,38.0,-100.00,NW,313,4.0,7.0,48,0.00,,,0.01,4.000000,,2013-06-17 04:12:00,
2013-06-16 22:34:00,57.0,40.0,-100.00,North,352,8.0,18.0,52,0.00,,,0.01,0.000000,,2013-06-17 04:34:00,
2013-06-16 22:43:00,57.0,40.0,-100.00,North,352,8.0,18.0,52,0.00,,,0.01,0.000000,,2013-06-17 04:43:00,
2013-06-16 22:53:00,57.0,40.0,-100.00,North,352,8.0,18.0,52,0.00,,,0.01,0.000000,,2013-06-17 04:53:00,
2013-06-16 23:02:00,57.0,40.0,-100.00,North,352,8.0,18.0,52,0.00,,,0.01,0.000000,,2013-06-17 05:02:00,
2013-06-16 23:12:00,57.0,40.0,-100.00,North,352,8.0,18.0,52,0.00,,,0.01,0.000000,,2013-06-17 05:12:00,
2013-06-16 23:33:00,55.0,39.0,-100.00,South,186,4.0,10.0,54,0.00,,,0.01,0.000000,,2013-06-17 05:33:00,
2013-06-16 23:44:00,55.0,39.0,-100.00,South,186,4.0,10.0,54,0.00,,,0.01,0.000000,,2013-06-17 05:44:00,
2013-06-16 23:53:00,55.0,39.0,-100.00,South,186,4.0,10.0,54,0.00,,,0.01,0.000000,,2013-06-17 05:53:00,